sensor_id;sensor_type;location;lat;lon;timestamp;temperature;humidity
66328;DHT22;53133;52.862;6.602;2023-03-04T00:01:16;6.80;99.90
66328;DHT22;53133;52.862;6.602;2023-03-04T00:03:42;6.80;99.90
66328;DHT22;53133;52.862;6.602;2023-03-04T00:06:08;6.80;99.90
66328;DHT22;53133;52.862;6.602;2023-03-04T00:08:33;6.80;99.90
66328;DHT22;53133;52.862;6.602;2023-03-04T00:10:59;6.80;99.90
66328;DHT22;53133;52.862;6.602;2023-03-04T00:13:25;6.80;99.90
66328;DHT22;53133;52.862;6.602;2023-03-04T00:15:50;6.80;99.90
66328;DHT22;53133;52.862;6.602;2023-03-04T00:18:16;6.80;99.90
66328;DHT22;53133;52.862;6.602;2023-03-04T00:20:42;6.80;99.90
66328;DHT22;53133;52.862;6.602;2023-03-04T00:23:08;6.80;99.90
66328;DHT22;53133;52.862;6.602;2023-03-04T00:25:33;6.80;99.90
66328;DHT22;53133;52.862;6.602;2023-03-04T00:27:59;6.80;99.90
66328;DHT22;53133;52.862;6.602;2023-03-04T00:30:25;6.70;99.90
66328;DHT22;53133;52.862;6.602;2023-03-04T00:32:51;6.70;99.90
66328;DHT22;53133;52.862;6.602;2023-03-04T00:35:17;6.70;99.90
66328;DHT22;53133;52.862;6.602;2023-03-04T00:37:42;6.70;99.90
66328;DHT22;53133;52.862;6.602;2023-03-04T00:40:09;6.70;99.90
66328;DHT22;53133;52.862;6.602;2023-03-04T00:42:35;6.70;99.90
66328;DHT22;53133;52.862;6.602;2023-03-04T00:45:01;6.70;99.90
66328;DHT22;53133;52.862;6.602;2023-03-04T00:47:27;6.70;99.90
66328;DHT22;53133;52.862;6.602;2023-03-04T00:49:52;6.70;99.90
66328;DHT22;53133;52.862;6.602;2023-03-04T00:52:18;6.70;99.90
66328;DHT22;53133;52.862;6.602;2023-03-04T00:54:44;6.70;99.90
66328;DHT22;53133;52.862;6.602;2023-03-04T00:57:09;6.70;99.90
66328;DHT22;53133;52.862;6.602;2023-03-04T00:59:35;6.70;99.90
66328;DHT22;53133;52.862;6.602;2023-03-04T01:02:00;6.70;99.90
66328;DHT22;53133;52.862;6.602;2023-03-04T01:04:26;6.70;99.90
66328;DHT22;53133;52.862;6.602;2023-03-04T01:06:51;6.70;99.90
66328;DHT22;53133;52.862;6.602;2023-03-04T01:09:17;6.70;99.90
66328;DHT22;53133;52.862;6.602;2023-03-04T01:11:43;6.70;99.90
66328;DHT22;53133;52.862;6.602;2023-03-04T01:14:08;6.70;99.90
66328;DHT22;53133;52.862;6.602;2023-03-04T01:16:34;6.70;99.90
66328;DHT22;53133;52.862;6.602;2023-03-04T01:19:00;6.70;99.90
66328;DHT22;53133;52.862;6.602;2023-03-04T01:21:25;6.70;99.90
66328;DHT22;53133;52.862;6.602;2023-03-04T01:23:51;6.70;99.90
66328;DHT22;53133;52.862;6.602;2023-03-04T01:26:16;6.70;99.90
66328;DHT22;53133;52.862;6.602;2023-03-04T01:28:42;6.70;99.90
66328;DHT22;53133;52.862;6.602;2023-03-04T01:31:07;6.70;99.90
66328;DHT22;53133;52.862;6.602;2023-03-04T01:33:33;6.70;99.90
66328;DHT22;53133;52.862;6.602;2023-03-04T01:35:59;6.70;99.90
66328;DHT22;53133;52.862;6.602;2023-03-04T01:38:24;6.70;99.90
66328;DHT22;53133;52.862;6.602;2023-03-04T01:40:50;6.80;99.90
66328;DHT22;53133;52.862;6.602;2023-03-04T01:43:22;6.80;99.90
66328;DHT22;53133;52.862;6.602;2023-03-04T01:45:48;6.80;99.90
66328;DHT22;53133;52.862;6.602;2023-03-04T01:48:19;6.70;99.90
66328;DHT22;53133;52.862;6.602;2023-03-04T01:50:46;6.70;99.90
66328;DHT22;53133;52.862;6.602;2023-03-04T01:53:19;6.70;99.90
66328;DHT22;53133;52.862;6.602;2023-03-04T01:55:46;6.70;99.90
66328;DHT22;53133;52.862;6.602;2023-03-04T01:58:12;6.70;99.90
66328;DHT22;53133;52.862;6.602;2023-03-04T02:00:38;6.70;99.90
66328;DHT22;53133;52.862;6.602;2023-03-04T02:03:06;6.70;99.90
66328;DHT22;53133;52.862;6.602;2023-03-04T02:05:35;6.70;99.90
66328;DHT22;53133;52.862;6.602;2023-03-04T02:08:02;6.70;99.90
66328;DHT22;53133;52.862;6.602;2023-03-04T02:10:29;6.60;99.90
66328;DHT22;53133;52.862;6.602;2023-03-04T02:12:55;6.60;99.90
66328;DHT22;53133;52.862;6.602;2023-03-04T02:15:22;6.60;99.90
66328;DHT22;53133;52.862;6.602;2023-03-04T02:17:47;6.60;99.90
66328;DHT22;53133;52.862;6.602;2023-03-04T02:22:45;6.60;99.90
66328;DHT22;53133;52.862;6.602;2023-03-04T02:25:16;6.70;99.90
66328;DHT22;53133;52.862;6.602;2023-03-04T02:27:42;6.70;99.90
66328;DHT22;53133;52.862;6.602;2023-03-04T02:30:10;6.70;99.90
66328;DHT22;53133;52.862;6.602;2023-03-04T02:32:37;6.60;99.90
66328;DHT22;53133;52.862;6.602;2023-03-04T02:35:03;6.60;99.90
66328;DHT22;53133;52.862;6.602;2023-03-04T02:37:28;6.60;99.90
66328;DHT22;53133;52.862;6.602;2023-03-04T02:39:54;6.60;99.90
66328;DHT22;53133;52.862;6.602;2023-03-04T02:42:20;6.60;99.90
66328;DHT22;53133;52.862;6.602;2023-03-04T02:44:46;6.60;99.90
66328;DHT22;53133;52.862;6.602;2023-03-04T02:47:15;6.60;99.90
66328;DHT22;53133;52.862;6.602;2023-03-04T02:49:44;6.50;99.90
66328;DHT22;53133;52.862;6.602;2023-03-04T02:52:17;6.50;99.90
66328;DHT22;53133;52.862;6.602;2023-03-04T02:54:44;6.50;99.90
66328;DHT22;53133;52.862;6.602;2023-03-04T02:57:12;6.50;99.90
66328;DHT22;53133;52.862;6.602;2023-03-04T02:59:39;6.50;99.90
66328;DHT22;53133;52.862;6.602;2023-03-04T03:02:06;6.50;99.90
66328;DHT22;53133;52.862;6.602;2023-03-04T03:04:32;6.50;99.90
66328;DHT22;53133;52.862;6.602;2023-03-04T03:06:59;6.50;99.90
66328;DHT22;53133;52.862;6.602;2023-03-04T03:09:24;6.50;99.90
66328;DHT22;53133;52.862;6.602;2023-03-04T03:11:50;6.50;99.90
66328;DHT22;53133;52.862;6.602;2023-03-04T03:14:15;6.50;99.90
66328;DHT22;53133;52.862;6.602;2023-03-04T03:16:41;6.50;99.90
66328;DHT22;53133;52.862;6.602;2023-03-04T03:19:07;6.50;99.90
66328;DHT22;53133;52.862;6.602;2023-03-04T03:21:33;6.50;99.90
66328;DHT22;53133;52.862;6.602;2023-03-04T03:23:58;6.50;99.90
66328;DHT22;53133;52.862;6.602;2023-03-04T03:26:24;6.50;99.90
66328;DHT22;53133;52.862;6.602;2023-03-04T03:28:50;6.50;99.90
66328;DHT22;53133;52.862;6.602;2023-03-04T03:31:15;6.50;99.90
66328;DHT22;53133;52.862;6.602;2023-03-04T03:33:41;6.50;99.90
66328;DHT22;53133;52.862;6.602;2023-03-04T03:36:07;6.50;99.90
66328;DHT22;53133;52.862;6.602;2023-03-04T03:38:33;6.50;99.90
66328;DHT22;53133;52.862;6.602;2023-03-04T03:40:59;6.60;99.90
66328;DHT22;53133;52.862;6.602;2023-03-04T03:43:24;6.50;99.90
66328;DHT22;53133;52.862;6.602;2023-03-04T03:45:50;6.50;99.90
66328;DHT22;53133;52.862;6.602;2023-03-04T03:48:16;6.50;99.90
66328;DHT22;53133;52.862;6.602;2023-03-04T03:50:42;6.60;99.90
66328;DHT22;53133;52.862;6.602;2023-03-04T03:53:07;6.60;99.90
66328;DHT22;53133;52.862;6.602;2023-03-04T03:55:33;6.60;99.90
66328;DHT22;53133;52.862;6.602;2023-03-04T03:57:59;6.60;99.90
66328;DHT22;53133;52.862;6.602;2023-03-04T04:00:24;6.60;99.90
66328;DHT22;53133;52.862;6.602;2023-03-04T04:02:52;6.60;99.90
66328;DHT22;53133;52.862;6.602;2023-03-04T04:05:18;6.60;99.90
66328;DHT22;53133;52.862;6.602;2023-03-04T04:07:43;6.60;99.90
66328;DHT22;53133;52.862;6.602;2023-03-04T04:10:10;6.60;99.90
66328;DHT22;53133;52.862;6.602;2023-03-04T04:12:36;6.60;99.90
66328;DHT22;53133;52.862;6.602;2023-03-04T04:15:01;6.60;99.90
66328;DHT22;53133;52.862;6.602;2023-03-04T04:17:27;6.60;99.90
66328;DHT22;53133;52.862;6.602;2023-03-04T04:19:52;6.60;99.90
66328;DHT22;53133;52.862;6.602;2023-03-04T04:22:19;6.60;99.90
66328;DHT22;53133;52.862;6.602;2023-03-04T04:24:46;6.50;99.90
66328;DHT22;53133;52.862;6.602;2023-03-04T04:27:11;6.50;99.90
66328;DHT22;53133;52.862;6.602;2023-03-04T04:29:37;6.50;99.90
66328;DHT22;53133;52.862;6.602;2023-03-04T04:32:03;6.50;99.90
66328;DHT22;53133;52.862;6.602;2023-03-04T04:34:29;6.50;99.90
66328;DHT22;53133;52.862;6.602;2023-03-04T04:36:55;6.50;99.90
66328;DHT22;53133;52.862;6.602;2023-03-04T04:39:20;6.50;99.90
66328;DHT22;53133;52.862;6.602;2023-03-04T04:41:47;6.50;99.90
66328;DHT22;53133;52.862;6.602;2023-03-04T04:44:13;6.50;99.90
66328;DHT22;53133;52.862;6.602;2023-03-04T04:46:39;6.50;99.90
66328;DHT22;53133;52.862;6.602;2023-03-04T04:49:05;6.50;99.90
66328;DHT22;53133;52.862;6.602;2023-03-04T04:51:33;6.50;99.90
66328;DHT22;53133;52.862;6.602;2023-03-04T04:53:59;6.50;99.90
66328;DHT22;53133;52.862;6.602;2023-03-04T04:56:26;6.50;99.90
66328;DHT22;53133;52.862;6.602;2023-03-04T04:58:57;6.50;99.90
66328;DHT22;53133;52.862;6.602;2023-03-04T05:01:23;6.40;99.90
66328;DHT22;53133;52.862;6.602;2023-03-04T05:03:49;6.40;99.90
66328;DHT22;53133;52.862;6.602;2023-03-04T05:06:15;6.40;99.90
66328;DHT22;53133;52.862;6.602;2023-03-04T05:08:41;6.40;99.90
66328;DHT22;53133;52.862;6.602;2023-03-04T05:11:06;6.40;99.90
66328;DHT22;53133;52.862;6.602;2023-03-04T05:13:32;6.40;99.90
66328;DHT22;53133;52.862;6.602;2023-03-04T05:15:58;6.40;99.90
66328;DHT22;53133;52.862;6.602;2023-03-04T05:18:25;6.40;99.90
66328;DHT22;53133;52.862;6.602;2023-03-04T05:20:52;6.40;99.90
66328;DHT22;53133;52.862;6.602;2023-03-04T05:23:18;6.40;99.90
66328;DHT22;53133;52.862;6.602;2023-03-04T05:25:44;6.40;99.90
66328;DHT22;53133;52.862;6.602;2023-03-04T05:28:09;6.50;99.90
66328;DHT22;53133;52.862;6.602;2023-03-04T05:30:41;6.40;99.90
66328;DHT22;53133;52.862;6.602;2023-03-04T05:33:07;6.40;99.90
66328;DHT22;53133;52.862;6.602;2023-03-04T05:35:37;6.40;99.90
66328;DHT22;53133;52.862;6.602;2023-03-04T05:38:05;6.40;99.90
66328;DHT22;53133;52.862;6.602;2023-03-04T05:40:31;6.40;99.90
66328;DHT22;53133;52.862;6.602;2023-03-04T05:42:56;6.40;99.90
66328;DHT22;53133;52.862;6.602;2023-03-04T05:45:23;6.40;99.90
66328;DHT22;53133;52.862;6.602;2023-03-04T05:47:49;6.40;99.90
66328;DHT22;53133;52.862;6.602;2023-03-04T05:50:14;6.50;99.90
66328;DHT22;53133;52.862;6.602;2023-03-04T05:52:40;6.50;99.90
66328;DHT22;53133;52.862;6.602;2023-03-04T05:55:06;6.40;99.90
66328;DHT22;53133;52.862;6.602;2023-03-04T05:57:32;6.50;99.90
66328;DHT22;53133;52.862;6.602;2023-03-04T05:59:57;6.40;99.90
66328;DHT22;53133;52.862;6.602;2023-03-04T06:02:23;6.40;99.90
66328;DHT22;53133;52.862;6.602;2023-03-04T06:04:48;6.40;99.90
66328;DHT22;53133;52.862;6.602;2023-03-04T06:07:14;6.40;99.90
66328;DHT22;53133;52.862;6.602;2023-03-04T06:09:40;6.40;99.90
66328;DHT22;53133;52.862;6.602;2023-03-04T06:12:05;6.50;99.90
66328;DHT22;53133;52.862;6.602;2023-03-04T06:14:32;6.40;99.90
66328;DHT22;53133;52.862;6.602;2023-03-04T06:16:57;6.40;99.90
66328;DHT22;53133;52.862;6.602;2023-03-04T06:19:23;6.40;99.90
66328;DHT22;53133;52.862;6.602;2023-03-04T06:21:49;6.40;99.90
66328;DHT22;53133;52.862;6.602;2023-03-04T06:24:14;6.40;99.90
66328;DHT22;53133;52.862;6.602;2023-03-04T06:26:40;6.30;99.90
66328;DHT22;53133;52.862;6.602;2023-03-04T06:29:05;6.30;99.90
66328;DHT22;53133;52.862;6.602;2023-03-04T06:31:31;6.30;99.90
66328;DHT22;53133;52.862;6.602;2023-03-04T06:33:57;6.30;99.90
66328;DHT22;53133;52.862;6.602;2023-03-04T06:36:22;6.30;99.90
66328;DHT22;53133;52.862;6.602;2023-03-04T06:38:48;6.20;99.90
66328;DHT22;53133;52.862;6.602;2023-03-04T06:41:13;6.20;99.90
66328;DHT22;53133;52.862;6.602;2023-03-04T06:43:39;6.20;99.90
66328;DHT22;53133;52.862;6.602;2023-03-04T06:46:07;6.20;99.90
66328;DHT22;53133;52.862;6.602;2023-03-04T06:48:32;6.30;99.90
66328;DHT22;53133;52.862;6.602;2023-03-04T06:51:04;6.30;99.90
66328;DHT22;53133;52.862;6.602;2023-03-04T06:53:30;6.40;99.90
66328;DHT22;53133;52.862;6.602;2023-03-04T06:55:55;6.40;99.90
66328;DHT22;53133;52.862;6.602;2023-03-04T06:58:21;6.30;99.90
66328;DHT22;53133;52.862;6.602;2023-03-04T07:00:47;6.30;99.90
66328;DHT22;53133;52.862;6.602;2023-03-04T07:03:12;6.40;99.90
66328;DHT22;53133;52.862;6.602;2023-03-04T07:05:38;6.40;99.90
66328;DHT22;53133;52.862;6.602;2023-03-04T07:08:03;6.40;99.90
66328;DHT22;53133;52.862;6.602;2023-03-04T07:10:31;6.40;99.90
66328;DHT22;53133;52.862;6.602;2023-03-04T07:12:57;6.40;99.90
66328;DHT22;53133;52.862;6.602;2023-03-04T07:15:23;6.50;99.90
66328;DHT22;53133;52.862;6.602;2023-03-04T07:17:49;6.50;99.90
66328;DHT22;53133;52.862;6.602;2023-03-04T07:20:15;6.50;99.90
66328;DHT22;53133;52.862;6.602;2023-03-04T07:22:41;6.50;99.90
66328;DHT22;53133;52.862;6.602;2023-03-04T07:25:07;6.60;99.90
66328;DHT22;53133;52.862;6.602;2023-03-04T07:27:32;6.50;99.90
66328;DHT22;53133;52.862;6.602;2023-03-04T07:29:58;6.60;99.90
66328;DHT22;53133;52.862;6.602;2023-03-04T07:32:24;6.60;99.90
66328;DHT22;53133;52.862;6.602;2023-03-04T07:34:50;6.50;99.90
66328;DHT22;53133;52.862;6.602;2023-03-04T07:37:15;6.50;99.90
66328;DHT22;53133;52.862;6.602;2023-03-04T07:39:41;6.60;99.90
66328;DHT22;53133;52.862;6.602;2023-03-04T07:42:06;6.60;99.90
66328;DHT22;53133;52.862;6.602;2023-03-04T07:44:32;6.60;99.90
66328;DHT22;53133;52.862;6.602;2023-03-04T07:46:57;6.60;99.90
66328;DHT22;53133;52.862;6.602;2023-03-04T07:49:23;6.60;99.90
66328;DHT22;53133;52.862;6.602;2023-03-04T07:51:48;6.70;99.90
66328;DHT22;53133;52.862;6.602;2023-03-04T07:54:14;6.80;99.90
66328;DHT22;53133;52.862;6.602;2023-03-04T07:56:40;6.80;99.90
66328;DHT22;53133;52.862;6.602;2023-03-04T07:59:05;6.90;99.90
66328;DHT22;53133;52.862;6.602;2023-03-04T08:01:34;6.90;99.90
66328;DHT22;53133;52.862;6.602;2023-03-04T08:04:00;6.90;99.90
66328;DHT22;53133;52.862;6.602;2023-03-04T08:06:27;6.90;99.90
66328;DHT22;53133;52.862;6.602;2023-03-04T08:09:04;6.90;99.90
66328;DHT22;53133;52.862;6.602;2023-03-04T08:11:31;6.90;99.90
66328;DHT22;53133;52.862;6.602;2023-03-04T08:13:57;6.90;99.90
66328;DHT22;53133;52.862;6.602;2023-03-04T08:16:23;6.90;99.90
66328;DHT22;53133;52.862;6.602;2023-03-04T08:18:53;6.90;99.90
66328;DHT22;53133;52.862;6.602;2023-03-04T08:21:19;6.90;99.90
66328;DHT22;53133;52.862;6.602;2023-03-04T08:23:47;6.90;99.90
66328;DHT22;53133;52.862;6.602;2023-03-04T08:26:25;6.90;99.90
66328;DHT22;53133;52.862;6.602;2023-03-04T08:28:52;6.90;99.90
66328;DHT22;53133;52.862;6.602;2023-03-04T08:31:18;6.90;99.90
66328;DHT22;53133;52.862;6.602;2023-03-04T08:33:44;6.90;99.90
66328;DHT22;53133;52.862;6.602;2023-03-04T08:36:11;6.90;99.90
66328;DHT22;53133;52.862;6.602;2023-03-04T08:38:37;7.00;99.90
66328;DHT22;53133;52.862;6.602;2023-03-04T08:41:03;7.10;99.90
66328;DHT22;53133;52.862;6.602;2023-03-04T08:43:29;7.10;99.90
66328;DHT22;53133;52.862;6.602;2023-03-04T08:45:55;7.20;99.90
66328;DHT22;53133;52.862;6.602;2023-03-04T08:48:57;7.30;99.90
66328;DHT22;53133;52.862;6.602;2023-03-04T08:51:23;7.30;99.90
66328;DHT22;53133;52.862;6.602;2023-03-04T08:53:49;7.30;99.90
66328;DHT22;53133;52.862;6.602;2023-03-04T08:56:14;7.40;99.90
66328;DHT22;53133;52.862;6.602;2023-03-04T08:58:41;7.40;99.90
66328;DHT22;53133;52.862;6.602;2023-03-04T09:01:09;7.30;99.90
66328;DHT22;53133;52.862;6.602;2023-03-04T09:03:35;7.30;99.90
66328;DHT22;53133;52.862;6.602;2023-03-04T09:06:02;7.20;99.90
66328;DHT22;53133;52.862;6.602;2023-03-04T09:08:28;7.20;99.90
66328;DHT22;53133;52.862;6.602;2023-03-04T09:10:54;7.20;99.90
66328;DHT22;53133;52.862;6.602;2023-03-04T09:13:21;7.20;99.90
66328;DHT22;53133;52.862;6.602;2023-03-04T09:15:49;7.20;99.90
66328;DHT22;53133;52.862;6.602;2023-03-04T09:18:15;7.20;99.90
66328;DHT22;53133;52.862;6.602;2023-03-04T09:20:41;7.20;99.90
66328;DHT22;53133;52.862;6.602;2023-03-04T09:23:06;7.20;99.90
66328;DHT22;53133;52.862;6.602;2023-03-04T09:25:34;7.20;99.90
66328;DHT22;53133;52.862;6.602;2023-03-04T09:28:00;7.20;99.90
66328;DHT22;53133;52.862;6.602;2023-03-04T09:30:25;7.20;99.90
66328;DHT22;53133;52.862;6.602;2023-03-04T09:32:51;7.20;99.90
66328;DHT22;53133;52.862;6.602;2023-03-04T09:35:16;7.30;99.90
66328;DHT22;53133;52.862;6.602;2023-03-04T09:37:42;7.30;99.90
66328;DHT22;53133;52.862;6.602;2023-03-04T09:40:21;7.30;99.90
66328;DHT22;53133;52.862;6.602;2023-03-04T09:42:57;7.30;99.90
66328;DHT22;53133;52.862;6.602;2023-03-04T09:45:30;7.30;99.90
66328;DHT22;53133;52.862;6.602;2023-03-04T09:47:56;7.20;99.90
66328;DHT22;53133;52.862;6.602;2023-03-04T09:50:22;7.20;99.90
66328;DHT22;53133;52.862;6.602;2023-03-04T09:55:38;7.10;99.90
66328;DHT22;53133;52.862;6.602;2023-03-04T10:00:43;6.90;99.90
66328;DHT22;53133;52.862;6.602;2023-03-04T10:05:47;6.90;99.90
66328;DHT22;53133;52.862;6.602;2023-03-04T10:16:28;7.10;99.90
66328;DHT22;53133;52.862;6.602;2023-03-04T10:18:58;7.10;99.90
66328;DHT22;53133;52.862;6.602;2023-03-04T10:21:32;7.30;99.90
66328;DHT22;53133;52.862;6.602;2023-03-04T10:24:10;7.30;99.90
66328;DHT22;53133;52.862;6.602;2023-03-04T10:26:37;7.30;99.90
66328;DHT22;53133;52.862;6.602;2023-03-04T10:29:03;7.30;99.90
66328;DHT22;53133;52.862;6.602;2023-03-04T10:31:36;7.30;99.90
66328;DHT22;53133;52.862;6.602;2023-03-04T10:34:03;7.30;99.90
66328;DHT22;53133;52.862;6.602;2023-03-04T10:42:02;7.20;99.90
66328;DHT22;53133;52.862;6.602;2023-03-04T10:44:30;7.20;99.90
66328;DHT22;53133;52.862;6.602;2023-03-04T10:46:56;7.20;99.90
66328;DHT22;53133;52.862;6.602;2023-03-04T10:49:24;7.20;99.90
66328;DHT22;53133;52.862;6.602;2023-03-04T10:52:18;7.30;99.90
66328;DHT22;53133;52.862;6.602;2023-03-04T10:54:53;7.40;99.90
66328;DHT22;53133;52.862;6.602;2023-03-04T10:57:35;7.40;99.90
66328;DHT22;53133;52.862;6.602;2023-03-04T11:00:29;7.40;99.90
66328;DHT22;53133;52.862;6.602;2023-03-04T11:03:21;7.50;99.90
66328;DHT22;53133;52.862;6.602;2023-03-04T11:05:46;7.60;99.90
66328;DHT22;53133;52.862;6.602;2023-03-04T11:08:17;7.60;99.90
66328;DHT22;53133;52.862;6.602;2023-03-04T11:10:44;7.60;99.90
66328;DHT22;53133;52.862;6.602;2023-03-04T11:13:17;7.70;99.90
66328;DHT22;53133;52.862;6.602;2023-03-04T11:18:15;7.70;99.90
66328;DHT22;53133;52.862;6.602;2023-03-04T11:20:47;7.70;99.90
66328;DHT22;53133;52.862;6.602;2023-03-04T11:26:05;7.70;99.90
66328;DHT22;53133;52.862;6.602;2023-03-04T11:28:51;7.60;99.90
66328;DHT22;53133;52.862;6.602;2023-03-04T11:31:33;7.60;99.90
66328;DHT22;53133;52.862;6.602;2023-03-04T11:34:06;7.60;99.90
66328;DHT22;53133;52.862;6.602;2023-03-04T11:39:52;7.70;99.90
66328;DHT22;53133;52.862;6.602;2023-03-04T11:43:02;7.60;99.90
66328;DHT22;53133;52.862;6.602;2023-03-04T11:51:02;7.40;99.90
66328;DHT22;53133;52.862;6.602;2023-03-04T11:56:31;7.50;99.90
66328;DHT22;53133;52.862;6.602;2023-03-04T12:04:45;7.70;99.90
66328;DHT22;53133;52.862;6.602;2023-03-04T12:07:40;7.70;99.90
66328;DHT22;53133;52.862;6.602;2023-03-04T12:13:00;7.80;99.90
66328;DHT22;53133;52.862;6.602;2023-03-04T12:15:53;7.80;99.90
66328;DHT22;53133;52.862;6.602;2023-03-04T12:21:57;7.90;99.90
66328;DHT22;53133;52.862;6.602;2023-03-04T12:30:02;7.90;99.90
66328;DHT22;53133;52.862;6.602;2023-03-04T12:33:11;7.90;99.90
66328;DHT22;53133;52.862;6.602;2023-03-04T12:44:57;8.10;99.90
66328;DHT22;53133;52.862;6.602;2023-03-04T12:55:44;7.90;99.90
66328;DHT22;53133;52.862;6.602;2023-03-04T12:58:20;7.80;99.90
66328;DHT22;53133;52.862;6.602;2023-03-04T13:01:10;7.80;99.90
66328;DHT22;53133;52.862;6.602;2023-03-04T13:04:39;7.80;99.90
66328;DHT22;53133;52.862;6.602;2023-03-04T13:12:03;7.80;99.90
66328;DHT22;53133;52.862;6.602;2023-03-04T13:14:31;7.80;99.90
66328;DHT22;53133;52.862;6.602;2023-03-04T13:16:59;7.80;99.90
66328;DHT22;53133;52.862;6.602;2023-03-04T13:25:35;8.00;99.90
66328;DHT22;53133;52.862;6.602;2023-03-04T13:32:56;8.00;99.90
66328;DHT22;53133;52.862;6.602;2023-03-04T13:35:48;7.90;99.90
66328;DHT22;53133;52.862;6.602;2023-03-04T13:38:25;7.80;99.90
66328;DHT22;53133;52.862;6.602;2023-03-04T13:41:22;7.80;99.90
66328;DHT22;53133;52.862;6.602;2023-03-04T13:43:52;7.70;99.90
66328;DHT22;53133;52.862;6.602;2023-03-04T13:51:28;7.70;99.90
66328;DHT22;53133;52.862;6.602;2023-03-04T13:56:32;7.80;99.90
66328;DHT22;53133;52.862;6.602;2023-03-04T14:01:35;7.80;99.90
66328;DHT22;53133;52.862;6.602;2023-03-04T14:04:19;7.80;99.90
66328;DHT22;53133;52.862;6.602;2023-03-04T14:06:47;7.80;99.90
66328;DHT22;53133;52.862;6.602;2023-03-04T14:09:22;8.00;99.90
66328;DHT22;53133;52.862;6.602;2023-03-04T14:11:50;8.00;99.90
66328;DHT22;53133;52.862;6.602;2023-03-04T14:14:26;8.00;99.90
66328;DHT22;53133;52.862;6.602;2023-03-04T14:16:58;7.90;99.90
66328;DHT22;53133;52.862;6.602;2023-03-04T14:19:37;7.70;99.90
66328;DHT22;53133;52.862;6.602;2023-03-04T14:22:25;7.70;99.90
66328;DHT22;53133;52.862;6.602;2023-03-04T14:25:02;7.60;99.90
66328;DHT22;53133;52.862;6.602;2023-03-04T14:27:31;7.50;99.90
66328;DHT22;53133;52.862;6.602;2023-03-04T14:30:17;7.50;99.90
66328;DHT22;53133;52.862;6.602;2023-03-04T14:32:43;7.40;99.90
66328;DHT22;53133;52.862;6.602;2023-03-04T14:35:22;7.40;99.90
66328;DHT22;53133;52.862;6.602;2023-03-04T14:38:17;7.40;99.90
66328;DHT22;53133;52.862;6.602;2023-03-04T14:40:48;7.40;99.90
66328;DHT22;53133;52.862;6.602;2023-03-04T14:43:18;7.40;99.90
66328;DHT22;53133;52.862;6.602;2023-03-04T14:45:47;7.40;99.90
66328;DHT22;53133;52.862;6.602;2023-03-04T14:48:19;7.50;99.90
66328;DHT22;53133;52.862;6.602;2023-03-04T14:50:49;7.50;99.90
66328;DHT22;53133;52.862;6.602;2023-03-04T14:53:17;7.50;99.90
66328;DHT22;53133;52.862;6.602;2023-03-04T14:56:14;7.50;99.90
66328;DHT22;53133;52.862;6.602;2023-03-04T14:58:54;7.50;99.90
66328;DHT22;53133;52.862;6.602;2023-03-04T15:01:22;7.40;99.90
66328;DHT22;53133;52.862;6.602;2023-03-04T15:04:07;7.40;99.90
66328;DHT22;53133;52.862;6.602;2023-03-04T15:06:36;7.40;99.90
66328;DHT22;53133;52.862;6.602;2023-03-04T15:09:06;7.40;99.90
66328;DHT22;53133;52.862;6.602;2023-03-04T15:12:05;7.40;99.90
66328;DHT22;53133;52.862;6.602;2023-03-04T15:14:47;7.40;99.90
66328;DHT22;53133;52.862;6.602;2023-03-04T15:25:13;7.30;99.90
66328;DHT22;53133;52.862;6.602;2023-03-04T15:27:46;7.30;99.90
66328;DHT22;53133;52.862;6.602;2023-03-04T15:30:19;7.20;99.90
66328;DHT22;53133;52.862;6.602;2023-03-04T15:32:46;7.30;99.90
66328;DHT22;53133;52.862;6.602;2023-03-04T15:35:12;7.20;99.90
66328;DHT22;53133;52.862;6.602;2023-03-04T15:37:39;7.20;99.90
66328;DHT22;53133;52.862;6.602;2023-03-04T15:40:24;7.20;99.90
66328;DHT22;53133;52.862;6.602;2023-03-04T15:42:50;7.20;99.90
66328;DHT22;53133;52.862;6.602;2023-03-04T15:45:21;7.20;99.90
66328;DHT22;53133;52.862;6.602;2023-03-04T15:47:47;7.10;99.90
66328;DHT22;53133;52.862;6.602;2023-03-04T15:50:14;7.10;99.90
66328;DHT22;53133;52.862;6.602;2023-03-04T15:52:40;7.20;99.90
66328;DHT22;53133;52.862;6.602;2023-03-04T15:55:08;7.20;99.90
66328;DHT22;53133;52.862;6.602;2023-03-04T15:57:37;7.10;99.90
66328;DHT22;53133;52.862;6.602;2023-03-04T16:00:03;7.10;99.90
66328;DHT22;53133;52.862;6.602;2023-03-04T16:02:28;7.10;99.90
66328;DHT22;53133;52.862;6.602;2023-03-04T16:04:54;7.10;99.90
66328;DHT22;53133;52.862;6.602;2023-03-04T16:07:24;7.10;99.90
66328;DHT22;53133;52.862;6.602;2023-03-04T16:10:02;7.10;99.90
66328;DHT22;53133;52.862;6.602;2023-03-04T16:12:28;7.10;99.90
66328;DHT22;53133;52.862;6.602;2023-03-04T16:14:54;7.00;99.90
66328;DHT22;53133;52.862;6.602;2023-03-04T16:17:20;6.90;99.90
66328;DHT22;53133;52.862;6.602;2023-03-04T16:19:45;6.90;99.90
66328;DHT22;53133;52.862;6.602;2023-03-04T16:22:22;6.80;99.90
66328;DHT22;53133;52.862;6.602;2023-03-04T16:24:50;6.80;99.90
66328;DHT22;53133;52.862;6.602;2023-03-04T16:27:17;6.70;99.90
66328;DHT22;53133;52.862;6.602;2023-03-04T16:29:43;6.70;99.90
66328;DHT22;53133;52.862;6.602;2023-03-04T16:32:09;6.70;99.90
66328;DHT22;53133;52.862;6.602;2023-03-04T16:34:35;6.70;99.90
66328;DHT22;53133;52.862;6.602;2023-03-04T16:37:06;6.60;99.90
66328;DHT22;53133;52.862;6.602;2023-03-04T16:39:35;6.70;99.90
66328;DHT22;53133;52.862;6.602;2023-03-04T16:42:01;6.60;99.90
66328;DHT22;53133;52.862;6.602;2023-03-04T16:44:27;6.60;99.90
66328;DHT22;53133;52.862;6.602;2023-03-04T16:46:52;6.50;99.90
66328;DHT22;53133;52.862;6.602;2023-03-04T16:49:18;6.50;99.90
66328;DHT22;53133;52.862;6.602;2023-03-04T16:51:48;6.40;99.90
66328;DHT22;53133;52.862;6.602;2023-03-04T16:54:40;6.30;99.90
66328;DHT22;53133;52.862;6.602;2023-03-04T16:57:07;6.00;99.90
66328;DHT22;53133;52.862;6.602;2023-03-04T16:59:33;5.90;99.90
66328;DHT22;53133;52.862;6.602;2023-03-04T17:01:58;5.90;99.90
66328;DHT22;53133;52.862;6.602;2023-03-04T17:04:24;5.80;99.90
66328;DHT22;53133;52.862;6.602;2023-03-04T17:06:50;5.80;99.90
66328;DHT22;53133;52.862;6.602;2023-03-04T17:09:15;5.80;99.90
66328;DHT22;53133;52.862;6.602;2023-03-04T17:11:41;5.80;99.90
66328;DHT22;53133;52.862;6.602;2023-03-04T17:14:07;5.80;99.90
66328;DHT22;53133;52.862;6.602;2023-03-04T17:16:32;5.80;99.90
66328;DHT22;53133;52.862;6.602;2023-03-04T17:18:58;5.90;99.90
66328;DHT22;53133;52.862;6.602;2023-03-04T17:21:25;5.90;99.90
66328;DHT22;53133;52.862;6.602;2023-03-04T17:23:52;5.90;99.90
66328;DHT22;53133;52.862;6.602;2023-03-04T17:26:18;5.90;99.90
66328;DHT22;53133;52.862;6.602;2023-03-04T17:28:49;5.90;99.90
66328;DHT22;53133;52.862;6.602;2023-03-04T17:31:16;5.90;99.90
66328;DHT22;53133;52.862;6.602;2023-03-04T17:33:43;5.90;99.90
66328;DHT22;53133;52.862;6.602;2023-03-04T17:36:13;5.90;99.90
66328;DHT22;53133;52.862;6.602;2023-03-04T17:38:39;5.90;99.90
66328;DHT22;53133;52.862;6.602;2023-03-04T17:41:09;5.90;99.90
66328;DHT22;53133;52.862;6.602;2023-03-04T17:43:35;6.00;99.90
66328;DHT22;53133;52.862;6.602;2023-03-04T17:46:09;5.90;99.90